createdAt,value
2022-07-29T00:00:02.111Z,18.7
2022-07-29T00:01:01.731Z,18.7
2022-07-29T00:02:01.572Z,18.7
2022-07-29T00:03:01.517Z,18.8
2022-07-29T00:04:01.572Z,18.5
2022-07-29T00:05:01.562Z,18.5
2022-07-29T00:06:01.453Z,18.5
2022-07-29T00:07:01.362Z,18.4
2022-07-29T00:08:02.280Z,18.4
2022-07-29T00:09:02.213Z,18.5
2022-07-29T00:10:02.046Z,18.5
2022-07-29T00:11:01.942Z,18.4
2022-07-29T00:12:01.834Z,18.6
2022-07-29T00:13:01.692Z,18.6
2022-07-29T00:14:01.555Z,18.5
2022-07-29T00:15:01.386Z,18.5
2022-07-29T00:16:03.721Z,18.6
2022-07-29T00:17:02.089Z,18.5
2022-07-29T00:18:01.985Z,18.4
2022-07-29T00:19:02.368Z,18.5
2022-07-29T00:20:02.323Z,18.5
2022-07-29T00:21:02.264Z,18.4
2022-07-29T00:22:02.106Z,18.6
2022-07-29T00:23:01.990Z,18.6
2022-07-29T00:24:01.875Z,18.5
2022-07-29T00:25:01.823Z,18.5
2022-07-29T00:26:01.626Z,18.5
2022-07-29T00:27:01.546Z,18.7
2022-07-29T00:28:01.507Z,18.5
2022-07-29T00:29:31.063Z,18.4
2022-07-29T00:30:01.760Z,18.4
2022-07-29T00:31:01.494Z,18.4
2022-07-29T00:32:01.588Z,18.5
2022-07-29T00:33:01.571Z,18.5
2022-07-29T00:34:01.461Z,18.5
2022-07-29T00:35:02.342Z,18.5
2022-07-29T00:36:02.264Z,18.6
2022-07-29T00:37:02.103Z,18.6
2022-07-29T00:38:02.103Z,18.7
2022-07-29T00:39:01.920Z,18.7
2022-07-29T00:40:01.754Z,18.6
2022-07-29T00:41:01.758Z,18.6
2022-07-29T00:42:01.649Z,18.7
2022-07-29T00:43:01.507Z,18.6
2022-07-29T00:44:01.379Z,18.5
2022-07-29T00:45:02.273Z,18.5
2022-07-29T00:46:02.074Z,18.5
2022-07-29T00:47:02.011Z,18.5
2022-07-29T00:48:01.951Z,18.6
2022-07-29T00:49:01.856Z,18.6
2022-07-29T00:50:01.842Z,18.6
2022-07-29T00:51:01.772Z,18.5
2022-07-29T00:52:02.205Z,18.6
2022-07-29T00:53:02.123Z,18.6
2022-07-29T00:54:02.014Z,18.6
2022-07-29T00:55:06.464Z,18.6
2022-07-29T00:56:01.479Z,18.6
2022-07-29T00:57:01.343Z,18.6
2022-07-29T00:58:02.238Z,18.5
2022-07-29T00:59:02.122Z,18.6
2022-07-29T01:00:02.039Z,18.7
2022-07-29T01:01:02.069Z,18.7
2022-07-29T01:02:02.103Z,18.6
2022-07-29T01:03:02.116Z,18.5
2022-07-29T01:04:01.493Z,18.4
2022-07-29T01:05:01.322Z,18.5
2022-07-29T01:06:02.237Z,18.4
2022-07-29T01:07:02.066Z,18.6
2022-07-29T01:08:01.957Z,18.6
2022-07-29T01:09:01.495Z,18.4
2022-07-29T01:10:01.354Z,18.4
2022-07-29T01:11:02.293Z,18.4
2022-07-29T01:12:02.135Z,18.5
2022-07-29T01:13:02.088Z,18.4
2022-07-29T01:14:01.897Z,18.5
2022-07-29T01:15:01.781Z,18.5
2022-07-29T01:16:01.786Z,18.5
2022-07-29T01:17:01.882Z,18.5
2022-07-29T01:18:01.606Z,18.6
2022-07-29T01:19:01.632Z,18.6
2022-07-29T01:20:01.508Z,18.5
2022-07-29T01:21:01.411Z,18.5
2022-07-29T01:22:02.323Z,18.4
2022-07-29T01:23:02.191Z,18.4
2022-07-29T01:24:02.075Z,18.3
2022-07-29T01:25:01.929Z,18.4
2022-07-29T01:26:01.795Z,18.4
2022-07-29T01:27:01.410Z,18.5
2022-07-29T01:28:01.677Z,18.5
2022-07-29T01:29:05.351Z,18.5
2022-07-29T01:30:02.139Z,18.5
2022-07-29T01:31:01.799Z,18.3
2022-07-29T01:32:02.263Z,18.4
2022-07-29T01:33:01.341Z,18.5
2022-07-29T01:34:02.281Z,18.5
2022-07-29T01:35:02.171Z,18.5
2022-07-29T01:36:02.040Z,18.4
2022-07-29T01:37:01.926Z,18.4
2022-07-29T01:38:01.802Z,18.4
2022-07-29T01:39:01.660Z,18.4
2022-07-29T01:40:01.535Z,18.4
2022-07-29T01:41:01.442Z,18.3
2022-07-29T01:42:01.355Z,18.4
2022-07-29T01:43:02.233Z,18.3
2022-07-29T01:44:02.128Z,18.3
2022-07-29T01:45:02.033Z,18.3
2022-07-29T01:46:01.717Z,18.3
2022-07-29T01:47:01.683Z,18.2
2022-07-29T01:48:01.709Z,18.3
2022-07-29T01:49:01.606Z,18.3
2022-07-29T01:50:01.470Z,18.3
2022-07-29T01:51:01.339Z,18.4
2022-07-29T01:52:02.236Z,18.3
2022-07-29T01:53:02.106Z,18.2
2022-07-29T01:54:01.920Z,18.2
2022-07-29T01:55:01.785Z,18.3
2022-07-29T01:56:01.635Z,18.3
2022-07-29T01:57:01.497Z,18.3
2022-07-29T01:58:01.390Z,18.1
2022-07-29T01:59:02.218Z,18.2
2022-07-29T02:00:02.140Z,18.3
2022-07-29T02:01:01.850Z,18.2
2022-07-29T02:02:01.808Z,18.2
2022-07-29T02:03:01.778Z,18.3
2022-07-29T02:04:01.634Z,18.2
2022-07-29T02:05:01.536Z,18.2
2022-07-29T02:06:01.466Z,18.2
2022-07-29T02:07:01.335Z,18.1
2022-07-29T02:08:02.253Z,18.1
2022-07-29T02:09:02.073Z,18.1
2022-07-29T02:10:01.903Z,18.2
2022-07-29T02:11:01.775Z,18.3
2022-07-29T02:12:01.644Z,18.3
2022-07-29T02:13:01.537Z,18.3
2022-07-29T02:14:01.432Z,18.3
2022-07-29T02:15:02.281Z,18.2
2022-07-29T02:16:02.253Z,18.2
2022-07-29T02:17:02.210Z,18.2
2022-07-29T02:18:02.100Z,18.3
2022-07-29T02:19:01.999Z,18.2
2022-07-29T02:20:01.892Z,18.3
2022-07-29T02:21:01.763Z,18.3
2022-07-29T02:22:01.645Z,18.1
2022-07-29T02:23:01.508Z,18.3
2022-07-29T02:24:01.451Z,18.1
2022-07-29T02:25:03.142Z,18.2
2022-07-29T02:26:02.002Z,18.2
2022-07-29T02:27:01.905Z,18.1
2022-07-29T02:28:01.781Z,18.2
2022-07-29T02:29:01.641Z,18.2
2022-07-29T02:30:01.548Z,18.2
2022-07-29T02:31:01.381Z,18.3
2022-07-29T02:32:01.336Z,18.2
2022-07-29T02:33:02.229Z,18.3
2022-07-29T02:34:02.126Z,18.2
2022-07-29T02:35:02.039Z,18.2
2022-07-29T02:36:01.888Z,18.3
2022-07-29T02:37:01.753Z,18.3
2022-07-29T02:38:01.647Z,18.2
2022-07-29T02:39:01.513Z,18.2
2022-07-29T02:40:01.355Z,18.3
2022-07-29T02:41:02.235Z,18.2
2022-07-29T02:42:02.181Z,18.2
2022-07-29T02:43:02.041Z,18.3
2022-07-29T02:44:01.910Z,18.4
2022-07-29T02:45:01.835Z,18.3
2022-07-29T02:46:01.687Z,18.4
2022-07-29T02:47:01.539Z,18.3
2022-07-29T02:48:01.447Z,18.2
2022-07-29T02:49:01.409Z,18.2
2022-07-29T02:50:01.509Z,18.2
2022-07-29T02:51:01.385Z,18.2
2022-07-29T02:52:02.276Z,18.3
2022-07-29T02:53:02.159Z,18.2
2022-07-29T02:54:02.068Z,18.2
2022-07-29T02:55:01.933Z,18.4
2022-07-29T02:56:01.791Z,18.3
2022-07-29T02:57:01.675Z,18.3
2022-07-29T02:58:01.541Z,18.3
2022-07-29T02:59:01.435Z,18.2
2022-07-29T03:00:01.749Z,18.3
2022-07-29T03:01:01.716Z,18.3
2022-07-29T03:02:01.665Z,18.3
2022-07-29T03:03:01.729Z,18.3
2022-07-29T03:04:01.658Z,18.2
2022-07-29T03:05:01.561Z,18.2
2022-07-29T03:06:02.070Z,18.4
2022-07-29T03:07:01.933Z,18.4
2022-07-29T03:08:01.829Z,18.3
2022-07-29T03:09:01.710Z,18.3
2022-07-29T03:10:01.593Z,18.3
2022-07-29T03:11:01.453Z,18.2
2022-07-29T03:12:01.321Z,18.3
2022-07-29T03:13:02.201Z,18.3
2022-07-29T03:14:02.087Z,18.3
2022-07-29T03:15:01.985Z,18.3
2022-07-29T03:16:01.605Z,18.3
2022-07-29T03:17:01.637Z,18.3
2022-07-29T03:18:01.539Z,18.3
2022-07-29T03:19:01.394Z,18.1
2022-07-29T03:20:02.328Z,18.3
2022-07-29T03:21:02.247Z,18.3
2022-07-29T03:22:02.151Z,18.3
2022-07-29T03:23:02.027Z,18.3
2022-07-29T03:24:04.497Z,18.3
2022-07-29T03:25:01.954Z,18.2
2022-07-29T03:26:01.809Z,18.2
2022-07-29T03:27:01.706Z,18.1
2022-07-29T03:28:01.573Z,18.3
2022-07-29T03:29:01.425Z,18.3
2022-07-29T03:30:02.328Z,18.3
2022-07-29T03:31:02.353Z,18.2
2022-07-29T03:32:02.707Z,18.3
2022-07-29T03:33:02.090Z,18.3
2022-07-29T03:34:01.665Z,18.3
2022-07-29T03:35:01.552Z,18.4
2022-07-29T03:36:01.444Z,18.4
2022-07-29T03:37:02.323Z,18.4
2022-07-29T03:38:02.225Z,18.3
2022-07-29T03:39:02.105Z,18.4
2022-07-29T03:40:01.994Z,18.4
2022-07-29T03:41:01.884Z,18.3
2022-07-29T03:42:01.762Z,18.4
2022-07-29T03:43:01.655Z,18.3
2022-07-29T03:44:01.525Z,18.3
2022-07-29T03:45:01.420Z,18.3
2022-07-29T03:46:02.382Z,18.4
2022-07-29T03:47:01.368Z,18.4
2022-07-29T03:48:02.270Z,18.4
2022-07-29T03:49:01.847Z,18.5
2022-07-29T03:50:01.879Z,18.5
2022-07-29T03:51:01.735Z,18.4
2022-07-29T03:52:01.610Z,18.4
2022-07-29T03:53:01.477Z,18.4
2022-07-29T03:54:03.869Z,18.4
2022-07-29T03:55:01.821Z,18.5
2022-07-29T03:56:01.692Z,18.5
2022-07-29T03:57:01.556Z,18.4
2022-07-29T03:58:01.462Z,18.4
2022-07-29T03:59:01.347Z,18.3
2022-07-29T04:00:02.317Z,18.3
2022-07-29T04:01:01.868Z,18.4
2022-07-29T04:02:01.904Z,18.3
2022-07-29T04:03:02.109Z,18.3
2022-07-29T04:04:02.114Z,18.2
2022-07-29T04:05:02.258Z,18.2
2022-07-29T04:06:02.142Z,18.2
2022-07-29T04:07:02.029Z,18.3
2022-07-29T04:08:01.876Z,18.2
2022-07-29T04:09:01.750Z,18.3
2022-07-29T04:10:01.620Z,18.3
2022-07-29T04:11:01.563Z,18.3
2022-07-29T04:12:02.730Z,18.3
2022-07-29T04:13:02.107Z,18.3
2022-07-29T04:14:02.047Z,18.3
2022-07-29T04:15:01.929Z,18.4
2022-07-29T04:16:01.724Z,18.3
2022-07-29T04:17:01.975Z,18.5
2022-07-29T04:18:01.879Z,18.4
2022-07-29T04:19:01.715Z,18.6
2022-07-29T04:20:01.581Z,18.5
2022-07-29T04:21:01.385Z,18.6
2022-07-29T04:22:02.447Z,18.6
2022-07-29T04:23:02.199Z,18.5
2022-07-29T04:24:02.106Z,18.5
2022-07-29T04:25:04.105Z,18.5
2022-07-29T04:26:02.327Z,18.6
2022-07-29T04:27:02.234Z,18.7
2022-07-29T04:28:02.125Z,18.7
2022-07-29T04:29:01.962Z,18.6
2022-07-29T04:30:01.856Z,18.6
2022-07-29T04:31:01.907Z,18.7
2022-07-29T04:32:02.091Z,18.7
2022-07-29T04:33:02.029Z,18.5
2022-07-29T04:34:01.854Z,18.9
2022-07-29T04:35:01.754Z,19
2022-07-29T04:36:01.632Z,19
2022-07-29T04:37:01.966Z,18.9
2022-07-29T04:38:01.834Z,18.8
2022-07-29T04:39:01.714Z,19.3
2022-07-29T04:40:01.588Z,19.3
2022-07-29T04:41:01.508Z,19.6
2022-07-29T04:42:01.448Z,19.4
2022-07-29T04:43:01.326Z,19
2022-07-29T04:44:01.806Z,19.5
2022-07-29T04:45:01.688Z,19.5
2022-07-29T04:46:01.566Z,19.2
2022-07-29T04:47:01.456Z,19.3
2022-07-29T04:48:02.421Z,19.3
2022-07-29T04:49:02.236Z,19.1
2022-07-29T04:50:02.212Z,19.5
2022-07-29T04:51:02.143Z,19.3
2022-07-29T04:52:02.054Z,19.5
2022-07-29T04:53:01.953Z,19.1
2022-07-29T04:54:01.851Z,19.2
2022-07-29T04:55:01.714Z,19.4
2022-07-29T04:56:01.622Z,19.3
2022-07-29T04:57:01.530Z,19.3
2022-07-29T04:58:01.497Z,19.2
2022-07-29T04:59:02.270Z,19.3
2022-07-29T05:00:02.181Z,19.1
2022-07-29T05:01:02.303Z,19.2
2022-07-29T05:02:02.257Z,19.2
2022-07-29T05:03:02.304Z,19.3
2022-07-29T05:04:01.427Z,19.2
2022-07-29T05:05:02.344Z,19.1
2022-07-29T05:06:02.190Z,19.4
2022-07-29T05:07:02.089Z,19.6
2022-07-29T05:08:01.962Z,19.7
2022-07-29T05:09:01.832Z,19.9
2022-07-29T05:10:01.716Z,19.6
2022-07-29T05:11:11.251Z,19.6
2022-07-29T05:12:02.323Z,19.6
2022-07-29T05:13:02.223Z,19.6
2022-07-29T05:14:02.120Z,19.8
2022-07-29T05:15:02.059Z,19.6
2022-07-29T05:16:02.109Z,19.6
2022-07-29T05:17:02.066Z,19.7
2022-07-29T05:18:01.970Z,19.9
2022-07-29T05:19:01.879Z,20.1
2022-07-29T05:20:01.755Z,19.9
2022-07-29T05:21:01.663Z,19.8
2022-07-29T05:22:01.496Z,20
2022-07-29T05:23:01.476Z,19.8
2022-07-29T05:24:02.292Z,19.8
2022-07-29T05:25:05.619Z,20
2022-07-29T05:26:01.952Z,20
2022-07-29T05:27:01.810Z,20
2022-07-29T05:28:01.676Z,20.1
2022-07-29T05:29:01.544Z,20.1
2022-07-29T05:30:01.424Z,20.1
2022-07-29T05:31:01.404Z,20
2022-07-29T05:32:01.474Z,20.3
2022-07-29T05:33:01.306Z,20.4
2022-07-29T05:34:02.189Z,20.3
2022-07-29T05:35:02.065Z,20.7
2022-07-29T05:36:01.945Z,20.5
2022-07-29T05:37:01.814Z,20.4
2022-07-29T05:38:01.693Z,20.5
2022-07-29T05:39:01.574Z,20.6
2022-07-29T05:40:01.431Z,20.6
2022-07-29T05:41:01.923Z,20.5
2022-07-29T05:42:01.796Z,20.2
2022-07-29T05:43:01.708Z,20.2
2022-07-29T05:44:01.579Z,20.3
2022-07-29T05:45:01.475Z,20.3
2022-07-29T05:46:02.345Z,20.3
2022-07-29T05:47:01.905Z,20.3
2022-07-29T05:48:01.769Z,20.4
2022-07-29T05:49:01.734Z,20.4
2022-07-29T05:50:01.656Z,20.7
2022-07-29T05:51:01.543Z,20.7
2022-07-29T05:52:01.473Z,20.7
2022-07-29T05:53:02.574Z,20.7
2022-07-29T05:54:01.776Z,20.6
2022-07-29T05:55:01.641Z,20.5
2022-07-29T05:56:01.516Z,20.6
2022-07-29T05:57:01.368Z,20.6
2022-07-29T05:58:02.263Z,20.6
2022-07-29T05:59:02.142Z,20.7
2022-07-29T06:00:02.025Z,20.7
2022-07-29T06:01:02.077Z,20.8
2022-07-29T06:02:02.115Z,20.7
2022-07-29T06:03:01.920Z,20.8
2022-07-29T06:04:01.869Z,20.8
2022-07-29T06:05:01.868Z,20.9
2022-07-29T06:06:01.941Z,20.8
2022-07-29T06:07:01.822Z,20.9
2022-07-29T06:08:01.741Z,21
2022-07-29T06:09:01.553Z,21
2022-07-29T06:10:01.799Z,21
2022-07-29T06:11:01.638Z,21.1
2022-07-29T06:12:01.507Z,21
2022-07-29T06:13:01.385Z,21.1
2022-07-29T06:14:02.280Z,21
2022-07-29T06:15:02.184Z,21.2
2022-07-29T06:16:02.008Z,21.2
2022-07-29T06:17:02.076Z,21.2
2022-07-29T06:18:02.085Z,21.1
2022-07-29T06:19:02.236Z,21.2
2022-07-29T06:20:02.120Z,21.3
2022-07-29T06:21:02.007Z,21.3
2022-07-29T06:22:01.843Z,21.4
2022-07-29T06:23:01.761Z,21.5
2022-07-29T06:24:01.590Z,21.5
2022-07-29T06:25:01.463Z,21.6
2022-07-29T06:26:01.343Z,21.6
2022-07-29T06:27:02.214Z,21.6
2022-07-29T06:28:02.123Z,21.5
2022-07-29T06:29:02.014Z,21.5
2022-07-29T06:30:01.897Z,21.6
2022-07-29T06:31:02.057Z,21.7
2022-07-29T06:32:01.946Z,21.8
2022-07-29T06:33:01.835Z,21.7
2022-07-29T06:34:01.680Z,21.7
2022-07-29T06:35:24.741Z,21.9
2022-07-29T06:36:02.214Z,21.8
2022-07-29T06:37:01.729Z,21.8
2022-07-29T06:38:02.275Z,21.9
2022-07-29T06:39:02.781Z,21.8
2022-07-29T06:40:01.695Z,21.8
2022-07-29T06:41:01.548Z,21.9
2022-07-29T06:42:01.407Z,22
2022-07-29T06:43:02.288Z,22.1
2022-07-29T06:44:02.175Z,22.1
2022-07-29T06:45:04.990Z,22
2022-07-29T06:46:02.030Z,22.2
2022-07-29T06:47:02.020Z,22.2
2022-07-29T06:48:01.878Z,22.2
2022-07-29T06:49:01.814Z,22.5
2022-07-29T06:50:01.878Z,22.4
2022-07-29T06:51:01.352Z,22.4
2022-07-29T06:52:02.252Z,22.6
2022-07-29T06:53:02.135Z,22.7
2022-07-29T06:54:03.499Z,22.4
2022-07-29T06:55:01.652Z,22.6
2022-07-29T06:56:01.529Z,22.8
2022-07-29T06:57:01.375Z,22.8
2022-07-29T06:58:02.254Z,22.7
2022-07-29T06:59:02.093Z,22.5
2022-07-29T07:00:01.980Z,22.6
2022-07-29T07:01:02.055Z,22.5
2022-07-29T07:02:02.045Z,22.4
2022-07-29T07:03:01.948Z,22.2
2022-07-29T07:04:01.850Z,22.2
2022-07-29T07:05:01.755Z,22.4
2022-07-29T07:06:01.618Z,22.4
2022-07-29T07:07:01.500Z,22.3
2022-07-29T07:08:01.327Z,22.4
2022-07-29T07:09:02.241Z,22.5
2022-07-29T07:10:02.080Z,22.6
2022-07-29T07:11:01.953Z,22.6
2022-07-29T07:12:01.800Z,22.5
2022-07-29T07:13:01.651Z,22.4
2022-07-29T07:14:03.654Z,22.6
2022-07-29T07:15:02.223Z,22.6
2022-07-29T07:16:01.844Z,22.6
2022-07-29T07:17:01.740Z,22.5
2022-07-29T07:18:01.679Z,22.4
2022-07-29T07:19:01.508Z,22.5
2022-07-29T07:20:01.360Z,22.7
2022-07-29T07:21:02.264Z,22.9
2022-07-29T07:22:02.147Z,23
2022-07-29T07:23:01.363Z,23.1
2022-07-29T07:24:02.274Z,23.1
2022-07-29T07:25:02.219Z,23.2
2022-07-29T07:26:02.013Z,23.2
2022-07-29T07:27:01.891Z,23.1
2022-07-29T07:28:02.620Z,23.2
2022-07-29T07:29:01.430Z,23.4
2022-07-29T07:30:02.321Z,23.4
2022-07-29T07:31:02.232Z,23.4
2022-07-29T07:32:02.122Z,23.3
2022-07-29T07:33:01.992Z,23.4
2022-07-29T07:34:01.962Z,23.6
2022-07-29T07:35:01.754Z,23.7
2022-07-29T07:36:01.627Z,23.8
2022-07-29T07:37:01.487Z,23.9
2022-07-29T07:38:01.338Z,24
2022-07-29T07:39:02.263Z,24
2022-07-29T07:40:02.105Z,24.1
2022-07-29T07:41:02.029Z,24
2022-07-29T07:42:01.839Z,24.2
2022-07-29T07:43:01.744Z,24.5
2022-07-29T07:44:01.647Z,24.4
2022-07-29T07:45:13.324Z,24.3
2022-07-29T07:46:02.204Z,24.1
2022-07-29T07:47:03.807Z,24.1
2022-07-29T07:48:02.202Z,24
2022-07-29T07:49:02.245Z,24
2022-07-29T07:50:02.252Z,23.9
2022-07-29T07:51:02.138Z,23.8
2022-07-29T07:52:01.989Z,24
2022-07-29T07:53:01.855Z,23.8
2022-07-29T07:54:01.770Z,23.8
2022-07-29T07:55:01.486Z,23.8
2022-07-29T07:56:10.747Z,23.7
2022-07-29T07:57:01.583Z,23.7
2022-07-29T07:58:01.459Z,23.8
2022-07-29T07:59:02.304Z,23.9
2022-07-29T08:00:02.142Z,23.8
2022-07-29T08:01:02.207Z,23.9
2022-07-29T08:02:02.218Z,23.8
2022-07-29T08:03:01.384Z,23.9
2022-07-29T08:04:02.314Z,24.1
2022-07-29T08:05:02.159Z,24.3
2022-07-29T08:06:02.058Z,24.4
2022-07-29T08:07:01.903Z,24.6
2022-07-29T08:08:01.735Z,24.8
2022-07-29T08:09:19.699Z,25
2022-07-29T08:10:02.256Z,24.7
2022-07-29T08:11:05.518Z,24.5
2022-07-29T08:12:01.498Z,24.4
2022-07-29T08:13:01.389Z,24.3
2022-07-29T08:14:02.247Z,24.3
2022-07-29T08:15:02.140Z,24.3
2022-07-29T08:16:02.155Z,24.4
2022-07-29T08:17:02.347Z,24.6
2022-07-29T08:18:06.514Z,24.8
2022-07-29T08:19:01.628Z,24.6
2022-07-29T08:20:01.517Z,24.4
2022-07-29T08:21:01.358Z,24.6
2022-07-29T08:22:02.244Z,24.6
2022-07-29T08:23:02.062Z,24.6
2022-07-29T08:24:05.369Z,24.8
2022-07-29T08:25:02.239Z,25
2022-07-29T08:26:02.094Z,25.2
2022-07-29T08:27:01.967Z,25.2
2022-07-29T08:28:01.779Z,25.3
2022-07-29T08:29:01.650Z,25.3
2022-07-29T08:30:01.543Z,25.3
2022-07-29T08:31:02.216Z,25.3
2022-07-29T08:32:02.079Z,25.5
2022-07-29T08:33:02.245Z,25.8
2022-07-29T08:34:02.242Z,25.5
2022-07-29T08:35:01.991Z,25.6
2022-07-29T08:36:01.954Z,25.7
2022-07-29T08:37:01.735Z,25.8
2022-07-29T08:38:01.863Z,26
2022-07-29T08:39:01.413Z,26.1
2022-07-29T08:40:02.377Z,26
2022-07-29T08:41:02.266Z,26.3
2022-07-29T08:42:02.208Z,26.2
2022-07-29T08:43:02.089Z,26.2
2022-07-29T08:44:01.995Z,26.1
2022-07-29T08:45:01.971Z,26.5
2022-07-29T08:46:01.660Z,26.4
2022-07-29T08:47:01.826Z,26.6
2022-07-29T08:48:01.664Z,26.4
2022-07-29T08:49:01.549Z,26.6
2022-07-29T08:50:01.532Z,26.4
2022-07-29T08:51:02.475Z,26.6
2022-07-29T08:52:01.642Z,26.9
2022-07-29T08:53:01.617Z,26.9
2022-07-29T08:54:01.391Z,27.2
2022-07-29T08:55:02.393Z,27
2022-07-29T08:56:02.187Z,27.1
2022-07-29T08:57:02.150Z,26.9
2022-07-29T08:58:01.419Z,27
2022-07-29T08:59:01.800Z,27
2022-07-29T09:00:06.292Z,27
2022-07-29T09:01:02.128Z,27.2
2022-07-29T09:02:01.889Z,27.3
2022-07-29T09:03:01.354Z,27.2
2022-07-29T09:04:02.432Z,27.5
2022-07-29T09:05:01.372Z,27.4
2022-07-29T09:06:02.294Z,27.5
2022-07-29T09:07:02.098Z,27.7
2022-07-29T09:08:02.047Z,27.6
2022-07-29T09:09:01.819Z,28.1
2022-07-29T09:10:01.808Z,28
2022-07-29T09:11:03.859Z,28
2022-07-29T09:12:01.357Z,27.4
2022-07-29T09:13:02.349Z,27.5
2022-07-29T09:14:02.184Z,27.5
2022-07-29T09:15:02.178Z,27.6
2022-07-29T09:16:04.557Z,27.7
2022-07-29T09:17:02.590Z,27.5
2022-07-29T09:18:01.454Z,27.6
2022-07-29T09:19:02.314Z,27.8
2022-07-29T09:20:02.116Z,27.8
2022-07-29T09:21:02.126Z,27.6
2022-07-29T09:22:03.150Z,27.5
2022-07-29T09:23:01.812Z,27.7
2022-07-29T09:24:01.815Z,27.9
2022-07-29T09:25:01.593Z,27.9
2022-07-29T09:26:01.567Z,27.5
2022-07-29T09:27:02.468Z,27.7
2022-07-29T09:28:02.234Z,27.4
2022-07-29T09:29:02.264Z,27.5
2022-07-29T09:30:02.062Z,27.7
2022-07-29T09:31:01.391Z,28.1
2022-07-29T09:32:02.447Z,28
2022-07-29T09:33:01.411Z,28.2
2022-07-29T09:34:02.342Z,28.5
2022-07-29T09:35:02.130Z,28.2
2022-07-29T09:36:02.142Z,28.1
2022-07-29T09:37:01.494Z,28
2022-07-29T09:38:01.460Z,28.1
2022-07-29T09:39:02.359Z,28.4
2022-07-29T09:40:02.149Z,28.3
2022-07-29T09:41:05.644Z,28.2
2022-07-29T09:42:01.628Z,27.9
2022-07-29T09:43:01.582Z,27.9
2022-07-29T09:44:01.349Z,28.2
2022-07-29T09:45:02.340Z,28.4
2022-07-29T09:46:01.466Z,28
2022-07-29T09:47:02.442Z,27.9
2022-07-29T09:48:01.455Z,27.9
2022-07-29T09:49:02.424Z,28.2
2022-07-29T09:50:01.370Z,28.2
2022-07-29T09:51:02.458Z,28
2022-07-29T09:52:02.203Z,27.9
2022-07-29T09:53:02.191Z,28.1
2022-07-29T09:54:01.982Z,27.8
2022-07-29T09:55:01.965Z,27.6
2022-07-29T09:56:01.785Z,27.5
2022-07-29T09:57:01.715Z,27.5
2022-07-29T09:58:01.642Z,27.8
2022-07-29T09:59:01.413Z,27.8
2022-07-29T10:00:02.408Z,27.7
2022-07-29T10:01:02.394Z,27.8
2022-07-29T10:02:01.405Z,27.5
2022-07-29T10:03:02.324Z,27.6
2022-07-29T10:04:02.289Z,27.3
2022-07-29T10:05:02.291Z,27.1
2022-07-29T10:06:02.066Z,27.3
2022-07-29T10:07:04.562Z,27.2
2022-07-29T10:08:02.087Z,27.2
2022-07-29T10:09:02.063Z,27.2
2022-07-29T10:10:01.887Z,27.6
2022-07-29T10:11:01.672Z,27.4
2022-07-29T10:12:01.720Z,27.3
2022-07-29T10:13:06.318Z,27.3
2022-07-29T10:14:02.256Z,27.3
2022-07-29T10:15:02.205Z,27.7
2022-07-29T10:16:01.980Z,27.9
2022-07-29T10:17:02.016Z,27.7
2022-07-29T10:18:01.800Z,27.8
2022-07-29T10:19:01.682Z,28.3
2022-07-29T10:20:01.674Z,27.9
2022-07-29T10:21:01.722Z,28.3
2022-07-29T10:22:01.904Z,28.7
2022-07-29T10:23:01.721Z,28.9
2022-07-29T10:24:01.797Z,28.8
2022-07-29T10:25:01.602Z,28.7
2022-07-29T10:26:01.577Z,28.8
2022-07-29T10:27:01.345Z,28.9
2022-07-29T10:28:02.352Z,28.6
2022-07-29T10:29:02.142Z,28.6
2022-07-29T10:30:02.152Z,28.2
2022-07-29T10:31:01.814Z,28.1
2022-07-29T10:32:01.829Z,28.1
2022-07-29T10:33:01.823Z,28.2
2022-07-29T10:34:01.603Z,28
2022-07-29T10:35:01.556Z,28.1
2022-07-29T10:36:01.358Z,28.1
2022-07-29T10:37:02.343Z,28.4
2022-07-29T10:38:01.359Z,28.5
2022-07-29T10:39:03.238Z,28.8
2022-07-29T10:40:02.185Z,29
2022-07-29T10:41:01.684Z,29.2
2022-07-29T10:42:01.644Z,29.3
2022-07-29T10:43:01.468Z,29.1
2022-07-29T10:44:01.462Z,29.2
2022-07-29T10:45:02.331Z,29.3
2022-07-29T10:46:02.322Z,29.5
2022-07-29T10:47:02.382Z,29.4
2022-07-29T10:48:01.559Z,29.6
2022-07-29T10:49:01.446Z,29.7
2022-07-29T10:50:01.733Z,29.9
2022-07-29T10:51:01.677Z,29.8
2022-07-29T10:52:01.940Z,29.9
2022-07-29T10:53:01.726Z,29.7
2022-07-29T10:54:01.658Z,29.5
2022-07-29T10:55:01.629Z,29.6
2022-07-29T10:56:01.779Z,29.3
2022-07-29T10:57:02.348Z,29.7
2022-07-29T10:58:01.624Z,29.7
2022-07-29T10:59:01.503Z,30
2022-07-29T11:00:02.348Z,29.6
2022-07-29T11:01:02.187Z,29.7
2022-07-29T11:02:28.089Z,29.5
2022-07-29T11:03:04.491Z,29.2
2022-07-29T11:04:01.565Z,29
2022-07-29T11:05:01.388Z,29.1
2022-07-29T11:06:02.329Z,29.1
2022-07-29T11:07:03.835Z,28.8
2022-07-29T11:08:02.270Z,29.2
2022-07-29T11:09:01.658Z,29.4
2022-07-29T11:10:01.946Z,29.4
2022-07-29T11:11:01.799Z,29.3
2022-07-29T11:12:02.501Z,29.4
2022-07-29T11:13:02.302Z,29.3
2022-07-29T11:14:02.073Z,29.7
2022-07-29T11:15:01.474Z,29.6
2022-07-29T11:16:02.011Z,29.3
2022-07-29T11:17:01.983Z,29.3
2022-07-29T11:18:01.439Z,29
2022-07-29T11:19:02.429Z,29
2022-07-29T11:20:01.640Z,28.9
2022-07-29T11:21:01.629Z,28.8
2022-07-29T11:22:01.837Z,28.9
2022-07-29T11:23:02.130Z,28.9
2022-07-29T11:24:01.881Z,28.8
2022-07-29T11:25:02.335Z,28.6
2022-07-29T11:26:02.269Z,28.6
2022-07-29T11:27:01.854Z,28.7
2022-07-29T11:28:01.890Z,28.6
2022-07-29T11:29:01.666Z,28.8
2022-07-29T11:30:02.018Z,28.7
2022-07-29T11:31:01.690Z,28.9
2022-07-29T11:32:01.717Z,28.6
2022-07-29T11:33:01.566Z,28.6
2022-07-29T11:34:05.543Z,28.4
2022-07-29T11:35:01.614Z,28.7
2022-07-29T11:36:03.258Z,28.6
2022-07-29T11:37:01.685Z,28.8
2022-07-29T11:38:01.630Z,28.4
2022-07-29T11:39:01.403Z,28.5
2022-07-29T11:40:01.756Z,28.3
2022-07-29T11:41:02.124Z,28.7
2022-07-29T11:42:04.922Z,28.4
2022-07-29T11:43:01.481Z,28.7
2022-07-29T11:44:01.783Z,28.6
2022-07-29T11:45:04.103Z,28.8
2022-07-29T11:46:01.979Z,28.7
2022-07-29T11:47:02.000Z,28.7
2022-07-29T11:48:06.005Z,28.3
2022-07-29T11:49:01.425Z,28.7
2022-07-29T11:50:01.498Z,28.7
2022-07-29T11:51:03.060Z,28.7
2022-07-29T11:53:01.929Z,29
2022-07-29T11:54:04.406Z,29.2
2022-07-29T11:55:09.717Z,29.2
2022-07-29T11:56:01.404Z,29.3
2022-07-29T11:57:02.419Z,29.4
2022-07-29T11:58:03.672Z,29.5
2022-07-29T11:59:01.447Z,29.6
2022-07-29T12:00:09.366Z,29.6
2022-07-29T12:01:04.410Z,29.7
2022-07-29T12:02:25.467Z,29.4
2022-07-29T12:03:01.832Z,29.1
2022-07-29T12:04:01.938Z,29.2
2022-07-29T12:05:01.490Z,29.2
2022-07-29T12:06:01.907Z,28.9
2022-07-29T12:08:02.065Z,29.1
2022-07-29T12:09:01.556Z,29.2
2022-07-29T12:10:02.366Z,29.3
2022-07-29T12:11:01.615Z,29.1
2022-07-29T12:12:05.317Z,28.8
2022-07-29T12:13:01.908Z,29
2022-07-29T12:14:01.920Z,28.7
2022-07-29T12:15:01.874Z,29
2022-07-29T12:16:02.308Z,28.8
2022-07-29T12:17:01.424Z,28.7
2022-07-29T12:18:03.964Z,28.8
2022-07-29T12:19:02.194Z,28.6
2022-07-29T12:20:01.605Z,28.8
2022-07-29T12:21:03.478Z,29.1
2022-07-29T12:22:02.263Z,29.3
2022-07-29T12:23:02.059Z,29.2
2022-07-29T12:24:06.019Z,29
2022-07-29T12:25:11.725Z,29
2022-07-29T12:26:02.288Z,28.9
2022-07-29T12:27:02.535Z,28.9
2022-07-29T12:28:02.028Z,28.7
2022-07-29T12:29:02.457Z,28.8
2022-07-29T12:30:02.399Z,28.8
2022-07-29T12:31:02.193Z,28.6
2022-07-29T12:32:02.396Z,28.7
2022-07-29T12:33:01.602Z,28.6
2022-07-29T12:34:01.578Z,28.6
2022-07-29T12:35:01.346Z,28.7
2022-07-29T12:36:06.508Z,28.9
2022-07-29T12:37:02.096Z,28.6
2022-07-29T12:38:02.047Z,28.4
2022-07-29T12:39:01.831Z,28.5
2022-07-29T12:40:01.731Z,28.4
2022-07-29T12:41:02.033Z,28.4
2022-07-29T12:42:04.234Z,28.5
2022-07-29T12:43:02.125Z,28.5
2022-07-29T12:44:02.135Z,28.7
2022-07-29T12:45:01.905Z,28.6
2022-07-29T12:46:01.853Z,28.7
2022-07-29T12:47:01.843Z,28.8
2022-07-29T12:48:01.639Z,28.7
2022-07-29T12:49:04.015Z,28.8
2022-07-29T12:50:02.361Z,28.9
2022-07-29T12:51:02.181Z,28.9
2022-07-29T12:52:02.247Z,28.6
2022-07-29T12:53:02.044Z,28.8
2022-07-29T12:54:02.060Z,28.6
2022-07-29T12:55:01.886Z,28.6
2022-07-29T12:56:01.351Z,28.5
2022-07-29T12:57:01.948Z,28.5
2022-07-29T12:58:01.707Z,28.6
2022-07-29T12:59:01.679Z,28.6
2022-07-29T13:00:01.565Z,28.7
2022-07-29T13:01:01.430Z,28.3
2022-07-29T13:02:01.632Z,28.6
2022-07-29T13:03:01.637Z,28.7
2022-07-29T13:04:01.813Z,28.8
2022-07-29T13:05:01.758Z,28.7
2022-07-29T13:06:01.625Z,28.6
2022-07-29T13:07:01.475Z,28.5
2022-07-29T13:08:01.874Z,28.5
2022-07-29T13:09:01.876Z,28.7
2022-07-29T13:10:01.858Z,28.6
2022-07-29T13:11:01.622Z,28.8
2022-07-29T13:12:01.638Z,28.7
2022-07-29T13:13:02.253Z,28.6
2022-07-29T13:14:06.512Z,28.6
2022-07-29T13:15:02.061Z,28.7
2022-07-29T13:16:02.195Z,29.1
2022-07-29T13:17:02.217Z,29.3
2022-07-29T13:18:02.374Z,29.2
2022-07-29T13:19:02.159Z,29.1
2022-07-29T13:20:02.132Z,29.1
2022-07-29T13:21:01.405Z,28.9
2022-07-29T13:22:02.399Z,29
2022-07-29T13:23:02.293Z,29